sensor_id;sensor_type;location;lat;lon;timestamp;pressure;altitude;pressure_sealevel;temperature;humidity
69171;BME280;56279;47.902;12.308;2024-02-26T00:01:25;93744.31;;;3.15;79.34
69171;BME280;56279;47.902;12.308;2024-02-26T00:03:28;93742.75;;;3.14;78.53
69171;BME280;56279;47.902;12.308;2024-02-26T00:05:31;93736.75;;;3.14;78.81
69171;BME280;56279;47.902;12.308;2024-02-26T00:07:32;93735.72;;;3.15;78.38
69171;BME280;56279;47.902;12.308;2024-02-26T00:09:35;93729.72;;;3.14;78.50
69171;BME280;56279;47.902;12.308;2024-02-26T00:11:38;93728.16;;;3.13;78.83
69171;BME280;56279;47.902;12.308;2024-02-26T00:13:39;93731.06;;;3.12;78.14
69171;BME280;56279;47.902;12.308;2024-02-26T00:15:41;93728.97;;;3.09;78.00
69171;BME280;56279;47.902;12.308;2024-02-26T00:17:43;93734.19;;;3.09;78.77
69171;BME280;56279;47.902;12.308;2024-02-26T00:19:44;93731.06;;;3.07;78.36
69171;BME280;56279;47.902;12.308;2024-02-26T00:21:46;93725.06;;;3.06;78.12
69171;BME280;56279;47.902;12.308;2024-02-26T00:23:49;93719.34;;;3.04;78.02
69171;BME280;56279;47.902;12.308;2024-02-26T00:25:51;93722.25;;;3.03;78.17
69171;BME280;56279;47.902;12.308;2024-02-26T00:27:52;93710.53;;;3.00;78.36
69171;BME280;56279;47.902;12.308;2024-02-26T00:29:54;93719.38;;;2.99;78.17
69171;BME280;56279;47.902;12.308;2024-02-26T00:31:56;93721.22;;;2.99;77.91
69171;BME280;56279;47.902;12.308;2024-02-26T00:33:57;93713.91;;;3.01;78.11
69171;BME280;56279;47.902;12.308;2024-02-26T00:35:58;93717.56;;;3.00;77.63
69171;BME280;56279;47.902;12.308;2024-02-26T00:37:59;93718.63;;;2.99;77.22
69171;BME280;56279;47.902;12.308;2024-02-26T00:40:01;93727.47;;;2.98;77.54
69171;BME280;56279;47.902;12.308;2024-02-26T00:42:03;93724.38;;;2.96;77.31
69171;BME280;56279;47.902;12.308;2024-02-26T00:44:04;93720.69;;;2.97;77.46
69171;BME280;56279;47.902;12.308;2024-02-26T00:46:06;93713.94;;;2.96;77.43
69171;BME280;56279;47.902;12.308;2024-02-26T00:48:08;93708.72;;;2.96;77.20
69171;BME280;56279;47.902;12.308;2024-02-26T00:50:09;93705.06;;;2.97;77.45
69171;BME280;56279;47.902;12.308;2024-02-26T00:52:11;93710.28;;;2.97;77.14
69171;BME280;56279;47.902;12.308;2024-02-26T00:54:12;93714.19;;;2.94;76.67
69171;BME280;56279;47.902;12.308;2024-02-26T00:56:13;93709.78;;;2.95;76.94
69171;BME280;56279;47.902;12.308;2024-02-26T00:58:15;93704.06;;;2.93;76.89
69171;BME280;56279;47.902;12.308;2024-02-26T01:00:17;93704.06;;;2.93;76.69
69171;BME280;56279;47.902;12.308;2024-02-26T01:02:18;93700.41;;;2.94;76.16
69171;BME280;56279;47.902;12.308;2024-02-26T01:04:20;93710.28;;;2.97;76.21
69171;BME280;56279;47.902;12.308;2024-02-26T01:06:21;93705.84;;;2.97;75.68
69171;BME280;56279;47.902;12.308;2024-02-26T01:08:23;93706.34;;;2.99;75.97
69171;BME280;56279;47.902;12.308;2024-02-26T01:10:24;93709.75;;;3.00;75.77
69171;BME280;56279;47.902;12.308;2024-02-26T01:12:25;93710.81;;;2.99;75.40
69171;BME280;56279;47.902;12.308;2024-02-26T01:14:27;93714.16;;;2.99;75.78
69171;BME280;56279;47.902;12.308;2024-02-26T01:16:29;93708.97;;;2.99;76.53
69171;BME280;56279;47.902;12.308;2024-02-26T01:18:31;93702.22;;;2.98;75.77
69171;BME280;56279;47.902;12.308;2024-02-26T01:20:33;93697.25;;;2.97;75.70
69171;BME280;56279;47.902;12.308;2024-02-26T01:22:34;93704.31;;;2.96;75.83
69171;BME280;56279;47.902;12.308;2024-02-26T01:24:35;93703.53;;;2.96;75.72
69171;BME280;56279;47.902;12.308;2024-02-26T01:26:37;93704.31;;;2.96;75.36
69171;BME280;56279;47.902;12.308;2024-02-26T01:28:38;93697.00;;;2.98;75.16
69171;BME280;56279;47.902;12.308;2024-02-26T01:30:39;93710.25;;;3.02;75.37
69171;BME280;56279;47.902;12.308;2024-02-26T01:32:40;93703.44;;;3.06;74.58
69171;BME280;56279;47.902;12.308;2024-02-26T01:34:42;93704.47;;;3.10;73.88
69171;BME280;56279;47.902;12.308;2024-02-26T01:36:43;93700.28;;;3.14;74.40
69171;BME280;56279;47.902;12.308;2024-02-26T01:38:44;93699.75;;;3.17;73.92
69171;BME280;56279;47.902;12.308;2024-02-26T01:40:46;93700.22;;;3.24;73.35
69171;BME280;56279;47.902;12.308;2024-02-26T01:42:47;93694.44;;;3.27;73.24
69171;BME280;56279;47.902;12.308;2024-02-26T01:44:49;93688.19;;;3.28;72.86
69171;BME280;56279;47.902;12.308;2024-02-26T01:46:50;93695.25;;;3.27;73.29
69171;BME280;56279;47.902;12.308;2024-02-26T01:48:52;93682.78;;;3.24;72.80
69171;BME280;56279;47.902;12.308;2024-02-26T01:50:54;93689.81;;;3.24;72.76
69171;BME280;56279;47.902;12.308;2024-02-26T01:52:56;93694.22;;;3.23;72.94
69171;BME280;56279;47.902;12.308;2024-02-26T01:54:58;93691.34;;;3.25;72.49
69171;BME280;56279;47.902;12.308;2024-02-26T01:57:03;93688.72;;;3.25;72.73
69171;BME280;56279;47.902;12.308;2024-02-26T01:59:05;93691.34;;;3.25;72.50
69171;BME280;56279;47.902;12.308;2024-02-26T02:01:08;93694.44;;;3.27;71.99
69171;BME280;56279;47.902;12.308;2024-02-26T02:03:13;93698.91;;;3.26;72.05
69171;BME280;56279;47.902;12.308;2024-02-26T02:05:16;93701.75;;;3.25;72.33
69171;BME280;56279;47.902;12.308;2024-02-26T02:07:21;93698.66;;;3.23;72.04
69171;BME280;56279;47.902;12.308;2024-02-26T02:09:25;93697.13;;;3.22;72.23
69171;BME280;56279;47.902;12.308;2024-02-26T02:11:26;93695.81;;;3.19;71.91
69171;BME280;56279;47.902;12.308;2024-02-26T02:13:28;93692.44;;;3.19;71.88
69171;BME280;56279;47.902;12.308;2024-02-26T02:15:29;93691.66;;;3.18;72.02
69171;BME280;56279;47.902;12.308;2024-02-26T02:17:32;93693.47;;;3.18;72.28
69171;BME280;56279;47.902;12.308;2024-02-26T02:19:33;93686.97;;;3.15;71.45
69171;BME280;56279;47.902;12.308;2024-02-26T02:21:36;93689.84;;;3.14;71.90
69171;BME280;56279;47.902;12.308;2024-02-26T02:23:37;93687.75;;;3.16;71.30
69171;BME280;56279;47.902;12.308;2024-02-26T02:25:38;93687.22;;;3.19;71.27
69171;BME280;56279;47.902;12.308;2024-02-26T02:27:40;93694.50;;;3.22;71.14
69171;BME280;56279;47.902;12.308;2024-02-26T02:29:43;93690.84;;;3.23;71.73
69171;BME280;56279;47.902;12.308;2024-02-26T02:31:45;93684.84;;;3.22;71.22
69171;BME280;56279;47.902;12.308;2024-02-26T02:33:46;93687.44;;;3.22;71.07
69171;BME280;56279;47.902;12.308;2024-02-26T02:35:48;93686.41;;;3.23;70.58
69171;BME280;56279;47.902;12.308;2024-02-26T02:37:51;93684.03;;;3.27;70.70
69171;BME280;56279;47.902;12.308;2024-02-26T02:39:52;93678.56;;;3.28;70.69
69171;BME280;56279;47.902;12.308;2024-02-26T02:41:55;93677.25;;;3.31;70.15
69171;BME280;56279;47.902;12.308;2024-02-26T02:43:57;93679.03;;;3.35;70.50
69171;BME280;56279;47.902;12.308;2024-02-26T02:45:58;93678.75;;;3.37;70.12
69171;BME280;56279;47.902;12.308;2024-02-26T02:47:59;93676.13;;;3.37;69.97
69171;BME280;56279;47.902;12.308;2024-02-26T02:50:01;93677.97;;;3.36;69.70
69171;BME280;56279;47.902;12.308;2024-02-26T02:52:02;93675.91;;;3.33;69.83
69171;BME280;56279;47.902;12.308;2024-02-26T02:54:05;93675.13;;;3.33;69.60
69171;BME280;56279;47.902;12.308;2024-02-26T02:56:06;93678.00;;;3.31;70.09
69171;BME280;56279;47.902;12.308;2024-02-26T02:58:08;93681.38;;;3.32;69.79
69171;BME280;56279;47.902;12.308;2024-02-26T03:00:10;93680.59;;;3.31;70.03
69171;BME280;56279;47.902;12.308;2024-02-26T03:02:11;93685.81;;;3.31;69.94
69171;BME280;56279;47.902;12.308;2024-02-26T03:04:13;93684.56;;;3.29;69.83
69171;BME280;56279;47.902;12.308;2024-02-26T03:06:14;93675.16;;;3.28;70.07
69171;BME280;56279;47.902;12.308;2024-02-26T03:08:15;93677.28;;;3.26;70.22
69171;BME280;56279;47.902;12.308;2024-02-26T03:10:16;93676.78;;;3.24;69.66
69171;BME280;56279;47.902;12.308;2024-02-26T03:12:18;93677.81;;;3.23;70.28
69171;BME280;56279;47.902;12.308;2024-02-26T03:14:19;93670.28;;;3.21;69.46
69171;BME280;56279;47.902;12.308;2024-02-26T03:16:20;93682.50;;;3.21;69.87
69171;BME280;56279;47.902;12.308;2024-02-26T03:18:22;93665.59;;;3.18;70.17
69171;BME280;56279;47.902;12.308;2024-02-26T03:20:23;93675.00;;;3.14;70.16
69171;BME280;56279;47.902;12.308;2024-02-26T03:22:24;93666.94;;;3.11;70.62
69171;BME280;56279;47.902;12.308;2024-02-26T03:24:25;93669.84;;;3.04;70.11
69171;BME280;56279;47.902;12.308;2024-02-26T03:26:27;93665.97;;;2.97;70.94
69171;BME280;56279;47.902;12.308;2024-02-26T03:28:32;93658.75;;;2.89;70.61
69171;BME280;56279;47.902;12.308;2024-02-26T03:30:34;93660.34;;;2.85;70.74
69171;BME280;56279;47.902;12.308;2024-02-26T03:32:35;93661.38;;;2.84;71.06
69171;BME280;56279;47.902;12.308;2024-02-26T03:34:37;93661.88;;;2.86;70.77
69171;BME280;56279;47.902;12.308;2024-02-26T03:36:41;93666.56;;;2.89;70.65
69171;BME280;56279;47.902;12.308;2024-02-26T03:38:43;93667.59;;;2.93;70.62
69171;BME280;56279;47.902;12.308;2024-02-26T03:40:44;93656.88;;;2.94;70.34
69171;BME280;56279;47.902;12.308;2024-02-26T03:42:45;93662.63;;;2.96;70.49
69171;BME280;56279;47.902;12.308;2024-02-26T03:44:48;93659.75;;;2.98;69.98
69171;BME280;56279;47.902;12.308;2024-02-26T03:46:49;93661.31;;;2.99;70.30
69171;BME280;56279;47.902;12.308;2024-02-26T03:48:51;93666.75;;;3.02;69.63
69171;BME280;56279;47.902;12.308;2024-02-26T03:50:52;93679.75;;;3.07;70.17
69171;BME280;56279;47.902;12.308;2024-02-26T03:52:53;93666.94;;;3.11;69.77
69171;BME280;56279;47.902;12.308;2024-02-26T03:54:55;93666.69;;;3.12;69.16
69171;BME280;56279;47.902;12.308;2024-02-26T03:56:56;93659.88;;;3.16;69.23
69171;BME280;56279;47.902;12.308;2024-02-26T03:58:57;93665.88;;;3.17;69.55
69171;BME280;56279;47.902;12.308;2024-02-26T04:01:00;93667.41;;;3.18;69.13
69171;BME280;56279;47.902;12.308;2024-02-26T04:03:01;93661.94;;;3.19;69.25
69171;BME280;56279;47.902;12.308;2024-02-26T04:05:03;93658.78;;;3.22;68.69
69171;BME280;56279;47.902;12.308;2024-02-26T04:07:07;93657.75;;;3.23;68.70
69171;BME280;56279;47.902;12.308;2024-02-26T04:09:08;93657.75;;;3.23;68.76
69171;BME280;56279;47.902;12.308;2024-02-26T04:11:11;93664.00;;;3.22;69.09
69171;BME280;56279;47.902;12.308;2024-02-26T04:13:12;93670.00;;;3.23;69.20
69171;BME280;56279;47.902;12.308;2024-02-26T04:15:13;93657.75;;;3.23;68.60
69171;BME280;56279;47.902;12.308;2024-02-26T04:17:15;93664.53;;;3.24;68.98
69171;BME280;56279;47.902;12.308;2024-02-26T04:19:16;93660.06;;;3.25;68.58
69171;BME280;56279;47.902;12.308;2024-02-26T04:21:17;93659.03;;;3.26;68.18
69171;BME280;56279;47.902;12.308;2024-02-26T04:23:19;93662.41;;;3.26;68.92
69171;BME280;56279;47.902;12.308;2024-02-26T04:25:20;93663.19;;;3.27;68.47
69171;BME280;56279;47.902;12.308;2024-02-26T04:27:24;93667.06;;;3.29;68.64
69171;BME280;56279;47.902;12.308;2024-02-26T04:29:25;93666.81;;;3.31;68.22
69171;BME280;56279;47.902;12.308;2024-02-26T04:31:26;93669.13;;;3.32;67.92
69171;BME280;56279;47.902;12.308;2024-02-26T04:33:28;93659.50;;;3.33;68.33
69171;BME280;56279;47.902;12.308;2024-02-26T04:35:30;93660.78;;;3.35;68.11
69171;BME280;56279;47.902;12.308;2024-02-26T04:37:31;93672.25;;;3.34;68.36
69171;BME280;56279;47.902;12.308;2024-02-26T04:39:32;93667.31;;;3.33;68.28
69171;BME280;56279;47.902;12.308;2024-02-26T04:41:34;93658.22;;;3.30;68.37
69171;BME280;56279;47.902;12.308;2024-02-26T04:43:35;93664.97;;;3.31;68.71
69171;BME280;56279;47.902;12.308;2024-02-26T04:45:43;93660.53;;;3.32;68.27
69171;BME280;56279;47.902;12.308;2024-02-26T04:47:44;93663.44;;;3.30;68.44
69171;BME280;56279;47.902;12.308;2024-02-26T04:49:46;93662.91;;;3.28;68.59
69171;BME280;56279;47.902;12.308;2024-02-26T04:51:47;93669.44;;;3.26;68.45
69171;BME280;56279;47.902;12.308;2024-02-26T04:53:49;93667.88;;;3.25;68.35
69171;BME280;56279;47.902;12.308;2024-02-26T04:55:51;93666.59;;;3.22;68.92
69171;BME280;56279;47.902;12.308;2024-02-26T04:57:52;93666.09;;;3.20;68.87
69171;BME280;56279;47.902;12.308;2024-02-26T04:59:54;93658.84;;;3.17;68.83
69171;BME280;56279;47.902;12.308;2024-02-26T05:01:55;93656.72;;;3.19;69.16
69171;BME280;56279;47.902;12.308;2024-02-26T05:03:56;93657.25;;;3.21;68.33
69171;BME280;56279;47.902;12.308;2024-02-26T05:05:57;93656.16;;;3.22;68.89
69171;BME280;56279;47.902;12.308;2024-02-26T05:08:00;93661.91;;;3.24;68.65
69171;BME280;56279;47.902;12.308;2024-02-26T05:10:01;93661.34;;;3.27;68.39
69171;BME280;56279;47.902;12.308;2024-02-26T05:12:03;93669.97;;;3.28;68.42
69171;BME280;56279;47.902;12.308;2024-02-26T05:14:04;93667.13;;;3.24;68.74
69171;BME280;56279;47.902;12.308;2024-02-26T05:16:06;93660.88;;;3.20;68.62
69171;BME280;56279;47.902;12.308;2024-02-26T05:18:07;93664.81;;;3.18;68.50
69171;BME280;56279;47.902;12.308;2024-02-26T05:20:09;93662.75;;;3.15;68.52
69171;BME280;56279;47.902;12.308;2024-02-26T05:22:10;93663.28;;;3.12;68.38
69171;BME280;56279;47.902;12.308;2024-02-26T05:24:12;93668.00;;;3.10;68.68
69171;BME280;56279;47.902;12.308;2024-02-26T05:26:22;93663.81;;;3.09;68.87
69171;BME280;56279;47.902;12.308;2024-02-26T05:28:23;93662.28;;;3.08;68.83
69171;BME280;56279;47.902;12.308;2024-02-26T05:30:24;93671.41;;;3.05;69.33
69171;BME280;56279;47.902;12.308;2024-02-26T05:32:27;93664.94;;;3.03;69.01
69171;BME280;56279;47.902;12.308;2024-02-26T05:34:29;93673.53;;;3.03;68.47
69171;BME280;56279;47.902;12.308;2024-02-26T05:36:31;93666.47;;;3.04;68.89
69171;BME280;56279;47.902;12.308;2024-02-26T05:38:34;93673.75;;;3.07;68.25
69171;BME280;56279;47.902;12.308;2024-02-26T05:40:35;93674.25;;;3.09;68.26
69171;BME280;56279;47.902;12.308;2024-02-26T05:42:36;93671.66;;;3.09;68.34
69171;BME280;56279;47.902;12.308;2024-02-26T05:44:38;93677.66;;;3.09;68.70
69171;BME280;56279;47.902;12.308;2024-02-26T05:46:39;93672.44;;;3.09;68.61
69171;BME280;56279;47.902;12.308;2024-02-26T05:48:40;93680.75;;;3.11;68.40
69171;BME280;56279;47.902;12.308;2024-02-26T05:50:42;93676.81;;;3.14;68.59
69171;BME280;56279;47.902;12.308;2024-02-26T05:52:43;93682.81;;;3.14;68.46
69171;BME280;56279;47.902;12.308;2024-02-26T05:54:44;93689.84;;;3.19;68.18
69171;BME280;56279;47.902;12.308;2024-02-26T05:56:45;93690.34;;;3.21;68.41
69171;BME280;56279;47.902;12.308;2024-02-26T05:58:47;93684.59;;;3.24;68.00
69171;BME280;56279;47.902;12.308;2024-02-26T06:00:49;93690.03;;;3.27;68.09
69171;BME280;56279;47.902;12.308;2024-02-26T06:02:50;93696.03;;;3.28;68.25
69171;BME280;56279;47.902;12.308;2024-02-26T06:04:51;93686.38;;;3.28;67.75
69171;BME280;56279;47.902;12.308;2024-02-26T06:06:52;93693.63;;;3.31;68.25
69171;BME280;56279;47.902;12.308;2024-02-26T06:08:56;93699.88;;;3.35;68.08
69171;BME280;56279;47.902;12.308;2024-02-26T06:10:57;93698.06;;;3.36;68.09
69171;BME280;56279;47.902;12.308;2024-02-26T06:12:59;93703.50;;;3.39;68.32
69171;BME280;56279;47.902;12.308;2024-02-26T06:15:00;93706.59;;;3.41;67.94
69171;BME280;56279;47.902;12.308;2024-02-26T06:17:04;93709.72;;;3.43;67.77
69171;BME280;56279;47.902;12.308;2024-02-26T06:19:06;93711.00;;;3.46;67.69
69171;BME280;56279;47.902;12.308;2024-02-26T06:21:09;93708.38;;;3.51;67.63
69171;BME280;56279;47.902;12.308;2024-02-26T06:23:13;93708.84;;;3.58;68.27
69171;BME280;56279;47.902;12.308;2024-02-26T06:25:16;93716.34;;;3.65;67.65
69171;BME280;56279;47.902;12.308;2024-02-26T06:27:18;93711.34;;;3.73;67.74
69171;BME280;56279;47.902;12.308;2024-02-26T06:29:19;93712.84;;;3.79;67.28
69171;BME280;56279;47.902;12.308;2024-02-26T06:31:26;93713.00;;;3.88;67.44
69171;BME280;56279;47.902;12.308;2024-02-26T06:33:32;93708.25;;;3.95;66.94
69171;BME280;56279;47.902;12.308;2024-02-26T06:35:33;93708.47;;;4.03;67.26
69171;BME280;56279;47.902;12.308;2024-02-26T06:37:37;93707.34;;;4.09;67.23
69171;BME280;56279;47.902;12.308;2024-02-26T06:39:39;93708.34;;;4.13;67.45
69171;BME280;56279;47.902;12.308;2024-02-26T06:41:41;93709.88;;;4.19;67.15
69171;BME280;56279;47.902;12.308;2024-02-26T06:43:43;93716.38;;;4.22;67.34
69171;BME280;56279;47.902;12.308;2024-02-26T06:45:44;93721.00;;;4.25;67.32
69171;BME280;56279;47.902;12.308;2024-02-26T06:47:48;93723.63;;;4.25;67.51
69171;BME280;56279;47.902;12.308;2024-02-26T06:49:49;93722.31;;;4.28;67.46
69171;BME280;56279;47.902;12.308;2024-02-26T06:51:52;93726.97;;;4.31;67.82
69171;BME280;56279;47.902;12.308;2024-02-26T06:53:56;93724.56;;;4.34;67.47
69171;BME280;56279;47.902;12.308;2024-02-26T06:55:57;93728.22;;;4.38;67.62
69171;BME280;56279;47.902;12.308;2024-02-26T06:57:58;93725.81;;;4.42;67.69
69171;BME280;56279;47.902;12.308;2024-02-26T07:00:00;93736.50;;;4.45;67.67
69171;BME280;56279;47.902;12.308;2024-02-26T07:02:01;93736.69;;;4.49;67.81
69171;BME280;56279;47.902;12.308;2024-02-26T07:04:02;93743.44;;;4.55;67.80
69171;BME280;56279;47.902;12.308;2024-02-26T07:06:04;93739.22;;;4.59;67.54
69171;BME280;56279;47.902;12.308;2024-02-26T07:08:06;93742.28;;;4.66;67.15
69171;BME280;56279;47.902;12.308;2024-02-26T07:10:08;93738.53;;;4.72;67.20
69171;BME280;56279;47.902;12.308;2024-02-26T07:12:09;93740.81;;;4.78;67.28
69171;BME280;56279;47.902;12.308;2024-02-26T07:14:12;93736.00;;;4.85;67.08
69171;BME280;56279;47.902;12.308;2024-02-26T07:16:13;93741.69;;;4.93;66.78
69171;BME280;56279;47.902;12.308;2024-02-26T07:18:14;93730.91;;;4.99;66.66
69171;BME280;56279;47.902;12.308;2024-02-26T07:20:16;93732.88;;;5.07;66.67
69171;BME280;56279;47.902;12.308;2024-02-26T07:22:19;93746.13;;;5.16;66.65
69171;BME280;56279;47.902;12.308;2024-02-26T07:24:20;93748.09;;;5.24;66.67
69171;BME280;56279;47.902;12.308;2024-02-26T07:26:21;93735.72;;;5.29;66.51
69171;BME280;56279;47.902;12.308;2024-02-26T07:28:25;93743.41;;;5.39;66.77
69171;BME280;56279;47.902;12.308;2024-02-26T07:30:26;93734.94;;;5.47;66.48
69171;BME280;56279;47.902;12.308;2024-02-26T07:32:28;93746.31;;;5.56;66.30
69171;BME280;56279;47.902;12.308;2024-02-26T07:34:30;93738.59;;;5.65;65.80
69171;BME280;56279;47.902;12.308;2024-02-26T07:36:31;93744.25;;;5.72;66.16
69171;BME280;56279;47.902;12.308;2024-02-26T07:38:32;93743.31;;;5.82;65.89
69171;BME280;56279;47.902;12.308;2024-02-26T07:40:34;93742.72;;;5.90;65.47
69171;BME280;56279;47.902;12.308;2024-02-26T07:42:35;93746.53;;;5.97;65.62
69171;BME280;56279;47.902;12.308;2024-02-26T07:44:36;93755.56;;;6.05;65.38
69171;BME280;56279;47.902;12.308;2024-02-26T07:46:37;93749.94;;;6.11;65.17
69171;BME280;56279;47.902;12.308;2024-02-26T07:48:39;93752.22;;;6.18;65.27
69171;BME280;56279;47.902;12.308;2024-02-26T07:50:42;93755.72;;;6.27;65.33
69171;BME280;56279;47.902;12.308;2024-02-26T07:52:43;93750.88;;;6.34;64.81
69171;BME280;56279;47.902;12.308;2024-02-26T07:54:46;93762.81;;;6.40;64.46
69171;BME280;56279;47.902;12.308;2024-02-26T07:56:47;93761.38;;;6.48;64.57
69171;BME280;56279;47.902;12.308;2024-02-26T07:58:49;93758.38;;;6.54;64.67
69171;BME280;56279;47.902;12.308;2024-02-26T08:00:50;93759.84;;;6.60;64.80
69171;BME280;56279;47.902;12.308;2024-02-26T08:02:51;93767.59;;;6.65;64.50
69171;BME280;56279;47.902;12.308;2024-02-26T08:04:53;93759.06;;;6.73;64.71
69171;BME280;56279;47.902;12.308;2024-02-26T08:06:55;93765.97;;;6.83;64.15
69171;BME280;56279;47.902;12.308;2024-02-26T08:08:56;93766.38;;;6.90;64.11
69171;BME280;56279;47.902;12.308;2024-02-26T08:10:57;93773.84;;;6.96;63.84
69171;BME280;56279;47.902;12.308;2024-02-26T08:12:58;93777.16;;;7.02;63.82
69171;BME280;56279;47.902;12.308;2024-02-26T08:15:08;93787.25;;;7.09;63.91
69171;BME280;56279;47.902;12.308;2024-02-26T08:17:10;93785.28;;;7.14;64.14
69171;BME280;56279;47.902;12.308;2024-02-26T08:19:11;93783.34;;;7.20;63.76
69171;BME280;56279;47.902;12.308;2024-02-26T08:21:15;93788.00;;;7.23;63.73
69171;BME280;56279;47.902;12.308;2024-02-26T08:23:17;93791.13;;;7.25;63.83
69171;BME280;56279;47.902;12.308;2024-02-26T08:25:18;93790.34;;;7.24;63.97
69171;BME280;56279;47.902;12.308;2024-02-26T08:27:25;93801.63;;;7.25;63.72
69171;BME280;56279;47.902;12.308;2024-02-26T08:29:27;93802.97;;;7.22;63.74
69171;BME280;56279;47.902;12.308;2024-02-26T08:31:28;93800.66;;;7.21;63.60
69171;BME280;56279;47.902;12.308;2024-02-26T08:33:31;93800.81;;;7.24;63.34
69171;BME280;56279;47.902;12.308;2024-02-26T08:35:32;93791.13;;;7.25;63.33
69171;BME280;56279;47.902;12.308;2024-02-26T08:37:34;93790.53;;;7.28;63.75
69171;BME280;56279;47.902;12.308;2024-02-26T08:39:35;93795.19;;;7.31;63.15
69171;BME280;56279;47.902;12.308;2024-02-26T08:41:36;93788.78;;;7.37;63.22
69171;BME280;56279;47.902;12.308;2024-02-26T08:43:38;93788.53;;;7.47;63.29
69171;BME280;56279;47.902;12.308;2024-02-26T08:45:39;93777.84;;;7.57;63.31
69171;BME280;56279;47.902;12.308;2024-02-26T08:47:40;93777.03;;;7.70;63.56
69171;BME280;56279;47.902;12.308;2024-02-26T08:49:45;93790.88;;;7.84;63.17
69171;BME280;56279;47.902;12.308;2024-02-26T08:51:46;93794.25;;;7.98;63.06
69171;BME280;56279;47.902;12.308;2024-02-26T08:53:47;93799.16;;;8.13;62.58
69171;BME280;56279;47.902;12.308;2024-02-26T08:55:49;93795.72;;;8.26;62.47
69171;BME280;56279;47.902;12.308;2024-02-26T08:57:51;93789.63;;;8.40;62.06
69171;BME280;56279;47.902;12.308;2024-02-26T08:59:53;93788.00;;;8.52;61.73
69171;BME280;56279;47.902;12.308;2024-02-26T09:01:54;93798.25;;;8.62;61.09
69171;BME280;56279;47.902;12.308;2024-02-26T09:03:55;93793.50;;;8.73;61.12
69171;BME280;56279;47.902;12.308;2024-02-26T09:05:58;93796.34;;;8.85;61.13
69171;BME280;56279;47.902;12.308;2024-02-26T09:07:59;93790.84;;;8.95;60.59
69171;BME280;56279;47.902;12.308;2024-02-26T09:10:01;93790.84;;;9.03;60.52
69171;BME280;56279;47.902;12.308;2024-02-26T09:12:02;93790.91;;;9.12;60.47
69171;BME280;56279;47.902;12.308;2024-02-26T09:14:04;93793.25;;;9.22;60.06
69171;BME280;56279;47.902;12.308;2024-02-26T09:16:06;93791.41;;;9.31;59.97
69171;BME280;56279;47.902;12.308;2024-02-26T09:18:07;93795.34;;;9.42;59.79
69171;BME280;56279;47.902;12.308;2024-02-26T09:20:08;93792.38;;;9.52;59.66
69171;BME280;56279;47.902;12.308;2024-02-26T09:22:10;93785.28;;;9.61;59.62
69171;BME280;56279;47.902;12.308;2024-02-26T09:24:12;93788.72;;;9.70;59.44
69171;BME280;56279;47.902;12.308;2024-02-26T09:26:13;93787.78;;;9.75;59.54
69171;BME280;56279;47.902;12.308;2024-02-26T09:28:14;93787.34;;;9.82;59.24
69171;BME280;56279;47.902;12.308;2024-02-26T09:30:19;93786.09;;;9.88;59.08
69171;BME280;56279;47.902;12.308;2024-02-26T09:32:21;93789.81;;;9.95;59.47
69171;BME280;56279;47.902;12.308;2024-02-26T09:34:23;93788.56;;;10.01;59.19
69171;BME280;56279;47.902;12.308;2024-02-26T09:36:24;93788.88;;;10.08;59.37
69171;BME280;56279;47.902;12.308;2024-02-26T09:38:28;93794.66;;;10.19;59.29
69171;BME280;56279;47.902;12.308;2024-02-26T09:40:30;93787.97;;;10.30;59.21
69171;BME280;56279;47.902;12.308;2024-02-26T09:42:33;93787.66;;;10.40;59.13
69171;BME280;56279;47.902;12.308;2024-02-26T09:44:36;93784.69;;;10.50;58.86
69171;BME280;56279;47.902;12.308;2024-02-26T09:46:40;93790.56;;;10.56;58.33
69171;BME280;56279;47.902;12.308;2024-02-26T09:48:42;93781.72;;;10.60;58.13
69171;BME280;56279;47.902;12.308;2024-02-26T09:50:46;93785.25;;;10.64;57.89
69171;BME280;56279;47.902;12.308;2024-02-26T09:52:49;93795.06;;;10.64;57.92
69171;BME280;56279;47.902;12.308;2024-02-26T09:54:51;93791.47;;;10.68;58.12
69171;BME280;56279;47.902;12.308;2024-02-26T09:56:53;93795.66;;;10.78;58.04
69171;BME280;56279;47.902;12.308;2024-02-26T09:58:58;93799.50;;;10.89;57.64
69171;BME280;56279;47.902;12.308;2024-02-26T10:01:02;93794.16;;;10.97;57.62
69171;BME280;56279;47.902;12.308;2024-02-26T10:03:06;93798.66;;;11.05;57.22
69171;BME280;56279;47.902;12.308;2024-02-26T10:05:14;93797.09;;;11.13;57.36
69171;BME280;56279;47.902;12.308;2024-02-26T10:07:17;93799.69;;;11.22;57.16
69171;BME280;56279;47.902;12.308;2024-02-26T10:09:19;93795.13;;;11.31;57.22
69171;BME280;56279;47.902;12.308;2024-02-26T10:11:22;93789.66;;;11.36;56.93
69171;BME280;56279;47.902;12.308;2024-02-26T10:13:23;93794.34;;;11.30;56.67
69171;BME280;56279;47.902;12.308;2024-02-26T10:15:24;93796.41;;;11.25;57.10
69171;BME280;56279;47.902;12.308;2024-02-26T10:17:26;93796.53;;;11.28;57.25
69171;BME280;56279;47.902;12.308;2024-02-26T10:19:29;93798.03;;;11.38;57.19
69171;BME280;56279;47.902;12.308;2024-02-26T10:21:31;93794.72;;;11.49;57.31
69171;BME280;56279;47.902;12.308;2024-02-26T10:23:33;93795.72;;;11.65;57.06
69171;BME280;56279;47.902;12.308;2024-02-26T10:25:34;93794.41;;;11.80;56.82
69171;BME280;56279;47.902;12.308;2024-02-26T10:27:35;93787.38;;;11.84;56.32
69171;BME280;56279;47.902;12.308;2024-02-26T10:29:37;93793.44;;;11.85;56.01
69171;BME280;56279;47.902;12.308;2024-02-26T10:31:42;93787.84;;;11.86;56.08
69171;BME280;56279;47.902;12.308;2024-02-26T10:33:43;93796.53;;;11.87;55.93
69171;BME280;56279;47.902;12.308;2024-02-26T10:35:46;93792.94;;;11.91;55.94
69171;BME280;56279;47.902;12.308;2024-02-26T10:37:49;93787.47;;;11.96;55.76
69171;BME280;56279;47.902;12.308;2024-02-26T10:39:51;93782.16;;;11.96;55.50
69171;BME280;56279;47.902;12.308;2024-02-26T10:41:52;93788.75;;;11.90;55.39
69171;BME280;56279;47.902;12.308;2024-02-26T10:43:54;93789.06;;;11.89;55.30
69171;BME280;56279;47.902;12.308;2024-02-26T10:45:55;93780.94;;;11.94;55.00